sensor_id;sensor_type;location;lat;lon;timestamp;P1;durP1;ratioP1;P2;durP2;ratioP2
24715;SDS011;12822;50.124;8.678;2023-06-01T00:00:18;4.63;;;2.35;;
24715;SDS011;12822;50.124;8.678;2023-06-01T00:02:44;6.25;;;2.80;;
24715;SDS011;12822;50.124;8.678;2023-06-01T00:05:10;5.22;;;2.30;;
24715;SDS011;12822;50.124;8.678;2023-06-01T00:07:36;6.65;;;2.72;;
24715;SDS011;12822;50.124;8.678;2023-06-01T00:10:02;7.20;;;2.33;;
24715;SDS011;12822;50.124;8.678;2023-06-01T00:12:28;5.93;;;2.55;;
24715;SDS011;12822;50.124;8.678;2023-06-01T00:14:54;8.88;;;2.80;;
24715;SDS011;12822;50.124;8.678;2023-06-01T00:17:20;7.88;;;2.50;;
24715;SDS011;12822;50.124;8.678;2023-06-01T00:19:47;4.53;;;2.30;;
24715;SDS011;12822;50.124;8.678;2023-06-01T00:22:13;5.70;;;2.47;;
24715;SDS011;12822;50.124;8.678;2023-06-01T00:24:40;7.93;;;2.92;;
24715;SDS011;12822;50.124;8.678;2023-06-01T00:27:06;5.50;;;2.53;;
24715;SDS011;12822;50.124;8.678;2023-06-01T00:29:32;8.18;;;2.42;;
24715;SDS011;12822;50.124;8.678;2023-06-01T00:31:58;5.65;;;2.20;;
24715;SDS011;12822;50.124;8.678;2023-06-01T00:34:25;7.00;;;2.50;;
24715;SDS011;12822;50.124;8.678;2023-06-01T00:36:51;8.93;;;2.63;;
24715;SDS011;12822;50.124;8.678;2023-06-01T00:39:17;9.95;;;2.63;;
24715;SDS011;12822;50.124;8.678;2023-06-01T00:41:43;6.88;;;2.72;;
24715;SDS011;12822;50.124;8.678;2023-06-01T00:44:09;9.88;;;2.90;;
24715;SDS011;12822;50.124;8.678;2023-06-01T00:46:35;7.00;;;2.90;;
24715;SDS011;12822;50.124;8.678;2023-06-01T00:49:02;8.48;;;2.78;;
24715;SDS011;12822;50.124;8.678;2023-06-01T00:51:28;6.72;;;2.70;;
24715;SDS011;12822;50.124;8.678;2023-06-01T00:53:54;4.32;;;2.05;;
24715;SDS011;12822;50.124;8.678;2023-06-01T00:56:20;7.38;;;2.85;;
24715;SDS011;12822;50.124;8.678;2023-06-01T00:58:47;9.32;;;2.40;;
24715;SDS011;12822;50.124;8.678;2023-06-01T01:01:13;8.27;;;2.80;;
24715;SDS011;12822;50.124;8.678;2023-06-01T01:03:48;3.92;;;2.40;;
24715;SDS011;12822;50.124;8.678;2023-06-01T01:06:33;10.65;;;3.00;;
24715;SDS011;12822;50.124;8.678;2023-06-01T01:11:32;7.53;;;2.60;;
24715;SDS011;12822;50.124;8.678;2023-06-01T01:14:01;6.78;;;2.55;;
24715;SDS011;12822;50.124;8.678;2023-06-01T01:16:27;4.50;;;2.15;;
24715;SDS011;12822;50.124;8.678;2023-06-01T01:21:26;8.50;;;2.28;;
24715;SDS011;12822;50.124;8.678;2023-06-01T01:26:46;8.48;;;2.40;;
24715;SDS011;12822;50.124;8.678;2023-06-01T01:29:18;4.35;;;2.35;;
24715;SDS011;12822;50.124;8.678;2023-06-01T01:31:46;8.85;;;2.67;;
24715;SDS011;12822;50.124;8.678;2023-06-01T01:34:15;7.38;;;2.42;;
24715;SDS011;12822;50.124;8.678;2023-06-01T01:36:42;6.05;;;2.60;;
24715;SDS011;12822;50.124;8.678;2023-06-01T01:39:08;7.75;;;2.95;;
24715;SDS011;12822;50.124;8.678;2023-06-01T01:41:34;6.68;;;2.35;;
24715;SDS011;12822;50.124;8.678;2023-06-01T01:44:00;7.40;;;2.65;;
24715;SDS011;12822;50.124;8.678;2023-06-01T01:46:28;9.75;;;2.67;;
24715;SDS011;12822;50.124;8.678;2023-06-01T01:51:34;4.70;;;2.42;;
24715;SDS011;12822;50.124;8.678;2023-06-01T01:54:01;7.63;;;2.90;;
24715;SDS011;12822;50.124;8.678;2023-06-01T01:56:29;5.80;;;2.70;;
24715;SDS011;12822;50.124;8.678;2023-06-01T01:58:55;4.72;;;2.28;;
24715;SDS011;12822;50.124;8.678;2023-06-01T02:01:21;8.98;;;3.00;;
24715;SDS011;12822;50.124;8.678;2023-06-01T02:03:56;4.88;;;2.53;;
24715;SDS011;12822;50.124;8.678;2023-06-01T02:06:22;9.75;;;2.80;;
24715;SDS011;12822;50.124;8.678;2023-06-01T02:08:48;8.98;;;2.65;;
24715;SDS011;12822;50.124;8.678;2023-06-01T02:11:14;7.40;;;2.45;;
24715;SDS011;12822;50.124;8.678;2023-06-01T02:13:40;7.25;;;2.20;;
24715;SDS011;12822;50.124;8.678;2023-06-01T02:16:06;8.13;;;2.25;;
24715;SDS011;12822;50.124;8.678;2023-06-01T02:18:32;4.63;;;2.42;;
24715;SDS011;12822;50.124;8.678;2023-06-01T02:21:00;6.32;;;2.33;;
24715;SDS011;12822;50.124;8.678;2023-06-01T02:23:26;5.88;;;2.13;;
24715;SDS011;12822;50.124;8.678;2023-06-01T02:25:52;7.03;;;2.33;;
24715;SDS011;12822;50.124;8.678;2023-06-01T02:28:18;7.88;;;2.70;;
24715;SDS011;12822;50.124;8.678;2023-06-01T02:30:44;6.57;;;2.22;;
24715;SDS011;12822;50.124;8.678;2023-06-01T02:33:10;8.25;;;2.53;;
24715;SDS011;12822;50.124;8.678;2023-06-01T02:35:36;7.47;;;2.47;;
24715;SDS011;12822;50.124;8.678;2023-06-01T02:38:02;7.22;;;2.50;;
24715;SDS011;12822;50.124;8.678;2023-06-01T02:40:28;6.38;;;2.65;;
24715;SDS011;12822;50.124;8.678;2023-06-01T02:42:54;8.30;;;2.65;;
24715;SDS011;12822;50.124;8.678;2023-06-01T02:45:20;6.75;;;2.42;;
24715;SDS011;12822;50.124;8.678;2023-06-01T02:47:46;7.55;;;2.50;;
24715;SDS011;12822;50.124;8.678;2023-06-01T02:50:12;6.05;;;2.50;;
24715;SDS011;12822;50.124;8.678;2023-06-01T02:52:38;9.13;;;2.75;;
24715;SDS011;12822;50.124;8.678;2023-06-01T02:55:06;6.00;;;2.20;;
24715;SDS011;12822;50.124;8.678;2023-06-01T02:57:32;7.03;;;2.47;;
24715;SDS011;12822;50.124;8.678;2023-06-01T02:59:58;5.35;;;2.00;;
24715;SDS011;12822;50.124;8.678;2023-06-01T03:02:24;9.50;;;2.95;;
24715;SDS011;12822;50.124;8.678;2023-06-01T03:04:51;9.32;;;2.47;;
24715;SDS011;12822;50.124;8.678;2023-06-01T03:07:17;8.40;;;2.25;;
24715;SDS011;12822;50.124;8.678;2023-06-01T03:09:43;11.60;;;2.60;;
24715;SDS011;12822;50.124;8.678;2023-06-01T03:12:09;7.28;;;2.40;;
24715;SDS011;12822;50.124;8.678;2023-06-01T03:14:35;5.55;;;2.38;;
24715;SDS011;12822;50.124;8.678;2023-06-01T03:17:01;6.80;;;2.47;;
24715;SDS011;12822;50.124;8.678;2023-06-01T03:19:27;7.78;;;2.58;;
24715;SDS011;12822;50.124;8.678;2023-06-01T03:21:53;7.68;;;2.97;;
24715;SDS011;12822;50.124;8.678;2023-06-01T03:24:20;5.75;;;2.38;;
24715;SDS011;12822;50.124;8.678;2023-06-01T03:26:47;9.48;;;3.35;;
24715;SDS011;12822;50.124;8.678;2023-06-01T03:29:14;6.57;;;2.53;;
24715;SDS011;12822;50.124;8.678;2023-06-01T03:31:39;6.55;;;2.58;;
24715;SDS011;12822;50.124;8.678;2023-06-01T03:34:06;7.78;;;2.70;;
24715;SDS011;12822;50.124;8.678;2023-06-01T03:36:32;7.95;;;2.88;;
24715;SDS011;12822;50.124;8.678;2023-06-01T03:39:01;5.57;;;2.30;;
24715;SDS011;12822;50.124;8.678;2023-06-01T03:41:32;8.25;;;2.70;;
24715;SDS011;12822;50.124;8.678;2023-06-01T03:43:58;6.90;;;2.60;;
24715;SDS011;12822;50.124;8.678;2023-06-01T03:46:25;5.15;;;2.55;;
24715;SDS011;12822;50.124;8.678;2023-06-01T03:48:51;8.13;;;2.58;;
24715;SDS011;12822;50.124;8.678;2023-06-01T03:51:17;7.10;;;2.40;;
24715;SDS011;12822;50.124;8.678;2023-06-01T03:53:43;5.93;;;2.47;;
24715;SDS011;12822;50.124;8.678;2023-06-01T03:56:09;7.35;;;2.70;;
24715;SDS011;12822;50.124;8.678;2023-06-01T03:58:35;8.38;;;2.75;;
24715;SDS011;12822;50.124;8.678;2023-06-01T04:01:01;9.30;;;2.75;;
24715;SDS011;12822;50.124;8.678;2023-06-01T04:03:28;9.63;;;3.17;;
24715;SDS011;12822;50.124;8.678;2023-06-01T04:05:54;9.45;;;2.60;;
24715;SDS011;12822;50.124;8.678;2023-06-01T04:08:25;4.60;;;2.58;;
24715;SDS011;12822;50.124;8.678;2023-06-01T04:10:51;6.47;;;2.60;;
24715;SDS011;12822;50.124;8.678;2023-06-01T04:13:17;9.13;;;2.60;;
24715;SDS011;12822;50.124;8.678;2023-06-01T04:15:44;9.32;;;2.75;;
24715;SDS011;12822;50.124;8.678;2023-06-01T04:18:11;10.13;;;2.92;;
24715;SDS011;12822;50.124;8.678;2023-06-01T04:20:37;8.43;;;2.80;;
24715;SDS011;12822;50.124;8.678;2023-06-01T04:23:03;6.95;;;2.40;;
24715;SDS011;12822;50.124;8.678;2023-06-01T04:25:29;5.85;;;2.42;;
24715;SDS011;12822;50.124;8.678;2023-06-01T04:27:55;6.30;;;2.80;;
24715;SDS011;12822;50.124;8.678;2023-06-01T04:30:21;4.72;;;2.50;;
24715;SDS011;12822;50.124;8.678;2023-06-01T04:32:47;8.85;;;2.70;;
24715;SDS011;12822;50.124;8.678;2023-06-01T04:35:13;4.85;;;2.53;;
24715;SDS011;12822;50.124;8.678;2023-06-01T04:37:40;8.07;;;2.53;;
24715;SDS011;12822;50.124;8.678;2023-06-01T04:40:07;6.25;;;2.65;;
24715;SDS011;12822;50.124;8.678;2023-06-01T04:42:37;7.22;;;2.72;;
24715;SDS011;12822;50.124;8.678;2023-06-01T04:45:06;7.00;;;2.80;;
24715;SDS011;12822;50.124;8.678;2023-06-01T04:47:33;5.50;;;2.20;;
24715;SDS011;12822;50.124;8.678;2023-06-01T04:50:05;9.13;;;2.50;;
24715;SDS011;12822;50.124;8.678;2023-06-01T04:52:33;8.30;;;2.60;;
24715;SDS011;12822;50.124;8.678;2023-06-01T04:54:59;4.50;;;2.40;;
24715;SDS011;12822;50.124;8.678;2023-06-01T04:57:25;6.00;;;2.50;;
24715;SDS011;12822;50.124;8.678;2023-06-01T04:59:51;7.95;;;2.80;;
24715;SDS011;12822;50.124;8.678;2023-06-01T05:02:22;6.78;;;2.97;;
24715;SDS011;12822;50.124;8.678;2023-06-01T05:04:49;6.50;;;2.70;;
24715;SDS011;12822;50.124;8.678;2023-06-01T05:07:15;10.90;;;2.38;;
24715;SDS011;12822;50.124;8.678;2023-06-01T05:09:41;7.90;;;2.83;;
24715;SDS011;12822;50.124;8.678;2023-06-01T05:12:07;9.43;;;2.97;;
24715;SDS011;12822;50.124;8.678;2023-06-01T05:14:33;8.75;;;2.13;;
24715;SDS011;12822;50.124;8.678;2023-06-01T05:16:59;6.05;;;2.63;;
24715;SDS011;12822;50.124;8.678;2023-06-01T05:19:25;5.35;;;2.53;;
24715;SDS011;12822;50.124;8.678;2023-06-01T05:21:51;7.07;;;2.53;;
24715;SDS011;12822;50.124;8.678;2023-06-01T05:24:18;5.82;;;2.60;;
24715;SDS011;12822;50.124;8.678;2023-06-01T05:26:44;8.35;;;2.90;;
24715;SDS011;12822;50.124;8.678;2023-06-01T05:29:10;6.38;;;2.60;;
24715;SDS011;12822;50.124;8.678;2023-06-01T05:31:36;6.53;;;2.58;;
24715;SDS011;12822;50.124;8.678;2023-06-01T05:34:02;10.95;;;3.03;;
24715;SDS011;12822;50.124;8.678;2023-06-01T05:36:29;6.63;;;3.10;;
24715;SDS011;12822;50.124;8.678;2023-06-01T05:38:56;6.25;;;2.80;;
24715;SDS011;12822;50.124;8.678;2023-06-01T05:41:23;6.90;;;2.60;;
24715;SDS011;12822;50.124;8.678;2023-06-01T05:43:49;8.18;;;2.40;;
24715;SDS011;12822;50.124;8.678;2023-06-01T05:46:16;11.73;;;3.00;;
24715;SDS011;12822;50.124;8.678;2023-06-01T05:48:42;12.27;;;2.92;;
24715;SDS011;12822;50.124;8.678;2023-06-01T05:51:08;8.27;;;2.70;;
24715;SDS011;12822;50.124;8.678;2023-06-01T05:53:34;5.22;;;2.50;;
24715;SDS011;12822;50.124;8.678;2023-06-01T05:56:00;7.18;;;2.25;;
24715;SDS011;12822;50.124;8.678;2023-06-01T05:58:26;6.65;;;2.95;;
24715;SDS011;12822;50.124;8.678;2023-06-01T06:00:52;9.32;;;3.45;;
24715;SDS011;12822;50.124;8.678;2023-06-01T06:03:18;8.80;;;3.50;;
24715;SDS011;12822;50.124;8.678;2023-06-01T06:05:44;11.10;;;2.78;;
24715;SDS011;12822;50.124;8.678;2023-06-01T06:08:10;6.15;;;2.22;;
24715;SDS011;12822;50.124;8.678;2023-06-01T06:10:36;14.75;;;3.10;;
24715;SDS011;12822;50.124;8.678;2023-06-01T06:13:02;7.78;;;3.50;;
24715;SDS011;12822;50.124;8.678;2023-06-01T06:15:28;8.68;;;2.83;;
24715;SDS011;12822;50.124;8.678;2023-06-01T06:17:54;6.03;;;2.97;;
24715;SDS011;12822;50.124;8.678;2023-06-01T06:20:20;5.55;;;2.70;;
24715;SDS011;12822;50.124;8.678;2023-06-01T06:22:52;10.02;;;2.90;;
24715;SDS011;12822;50.124;8.678;2023-06-01T06:25:18;9.48;;;2.72;;
24715;SDS011;12822;50.124;8.678;2023-06-01T06:27:45;7.32;;;2.53;;
24715;SDS011;12822;50.124;8.678;2023-06-01T06:30:12;9.00;;;3.13;;
24715;SDS011;12822;50.124;8.678;2023-06-01T06:32:38;7.45;;;2.83;;
24715;SDS011;12822;50.124;8.678;2023-06-01T06:35:04;4.28;;;2.42;;
24715;SDS011;12822;50.124;8.678;2023-06-01T06:37:30;13.85;;;2.83;;
24715;SDS011;12822;50.124;8.678;2023-06-01T06:39:57;9.82;;;2.65;;
24715;SDS011;12822;50.124;8.678;2023-06-01T06:42:23;8.00;;;2.60;;
24715;SDS011;12822;50.124;8.678;2023-06-01T06:44:50;8.23;;;2.95;;
24715;SDS011;12822;50.124;8.678;2023-06-01T06:47:16;9.15;;;2.40;;
24715;SDS011;12822;50.124;8.678;2023-06-01T06:49:44;6.53;;;2.63;;
24715;SDS011;12822;50.124;8.678;2023-06-01T06:52:11;10.50;;;3.10;;
24715;SDS011;12822;50.124;8.678;2023-06-01T06:54:40;7.22;;;2.72;;
24715;SDS011;12822;50.124;8.678;2023-06-01T06:57:09;9.73;;;2.58;;
24715;SDS011;12822;50.124;8.678;2023-06-01T06:59:35;9.65;;;2.75;;
24715;SDS011;12822;50.124;8.678;2023-06-01T07:02:02;9.00;;;2.85;;
24715;SDS011;12822;50.124;8.678;2023-06-01T07:04:28;9.10;;;3.17;;
24715;SDS011;12822;50.124;8.678;2023-06-01T07:06:54;5.45;;;2.22;;
24715;SDS011;12822;50.124;8.678;2023-06-01T07:09:21;8.13;;;2.55;;
24715;SDS011;12822;50.124;8.678;2023-06-01T07:11:47;10.68;;;2.60;;
24715;SDS011;12822;50.124;8.678;2023-06-01T07:14:15;6.97;;;3.13;;
24715;SDS011;12822;50.124;8.678;2023-06-01T07:16:41;7.75;;;2.47;;
24715;SDS011;12822;50.124;8.678;2023-06-01T07:19:07;6.90;;;2.40;;
24715;SDS011;12822;50.124;8.678;2023-06-01T07:21:33;6.10;;;3.00;;
24715;SDS011;12822;50.124;8.678;2023-06-01T07:24:01;7.20;;;2.67;;
24715;SDS011;12822;50.124;8.678;2023-06-01T07:26:30;6.43;;;2.38;;
24715;SDS011;12822;50.124;8.678;2023-06-01T07:28:56;9.88;;;2.58;;
24715;SDS011;12822;50.124;8.678;2023-06-01T07:31:24;9.48;;;2.58;;
24715;SDS011;12822;50.124;8.678;2023-06-01T07:33:52;6.25;;;2.35;;
24715;SDS011;12822;50.124;8.678;2023-06-01T07:36:20;6.70;;;2.35;;
24715;SDS011;12822;50.124;8.678;2023-06-01T07:38:48;5.57;;;2.40;;
24715;SDS011;12822;50.124;8.678;2023-06-01T07:41:15;4.30;;;2.10;;
24715;SDS011;12822;50.124;8.678;2023-06-01T07:43:41;4.22;;;1.90;;
24715;SDS011;12822;50.124;8.678;2023-06-01T07:46:07;6.75;;;2.55;;
24715;SDS011;12822;50.124;8.678;2023-06-01T07:48:34;7.63;;;2.47;;
24715;SDS011;12822;50.124;8.678;2023-06-01T07:51:03;6.47;;;2.40;;
24715;SDS011;12822;50.124;8.678;2023-06-01T07:53:30;6.47;;;2.38;;
24715;SDS011;12822;50.124;8.678;2023-06-01T07:55:57;7.60;;;2.08;;
24715;SDS011;12822;50.124;8.678;2023-06-01T07:58:22;10.98;;;3.08;;
24715;SDS011;12822;50.124;8.678;2023-06-01T08:00:49;8.52;;;2.28;;
24715;SDS011;12822;50.124;8.678;2023-06-01T08:03:15;7.70;;;2.38;;
24715;SDS011;12822;50.124;8.678;2023-06-01T08:05:41;11.75;;;3.00;;
24715;SDS011;12822;50.124;8.678;2023-06-01T08:08:07;5.90;;;2.10;;
24715;SDS011;12822;50.124;8.678;2023-06-01T08:10:34;10.32;;;2.55;;
24715;SDS011;12822;50.124;8.678;2023-06-01T08:13:00;6.45;;;1.90;;
24715;SDS011;12822;50.124;8.678;2023-06-01T08:15:27;4.13;;;1.80;;
24715;SDS011;12822;50.124;8.678;2023-06-01T08:17:54;5.45;;;2.00;;
24715;SDS011;12822;50.124;8.678;2023-06-01T08:20:20;7.22;;;2.28;;
24715;SDS011;12822;50.124;8.678;2023-06-01T08:22:48;5.03;;;1.95;;
24715;SDS011;12822;50.124;8.678;2023-06-01T08:25:17;7.65;;;2.42;;
24715;SDS011;12822;50.124;8.678;2023-06-01T08:27:43;6.10;;;1.92;;
24715;SDS011;12822;50.124;8.678;2023-06-01T08:30:10;12.30;;;3.28;;
24715;SDS011;12822;50.124;8.678;2023-06-01T08:32:36;7.72;;;2.35;;
24715;SDS011;12822;50.124;8.678;2023-06-01T08:35:03;5.07;;;2.15;;
24715;SDS011;12822;50.124;8.678;2023-06-01T08:37:30;7.95;;;2.58;;
24715;SDS011;12822;50.124;8.678;2023-06-01T08:39:56;7.45;;;1.90;;
24715;SDS011;12822;50.124;8.678;2023-06-01T08:45:10;6.72;;;2.38;;
24715;SDS011;12822;50.124;8.678;2023-06-01T08:47:36;8.48;;;2.10;;
24715;SDS011;12822;50.124;8.678;2023-06-01T08:50:03;7.50;;;2.22;;
24715;SDS011;12822;50.124;8.678;2023-06-01T08:52:30;7.50;;;2.25;;
24715;SDS011;12822;50.124;8.678;2023-06-01T08:55:02;8.70;;;2.28;;
24715;SDS011;12822;50.124;8.678;2023-06-01T08:57:29;6.97;;;2.00;;
24715;SDS011;12822;50.124;8.678;2023-06-01T08:59:55;9.60;;;2.30;;
24715;SDS011;12822;50.124;8.678;2023-06-01T09:02:22;6.13;;;1.77;;
24715;SDS011;12822;50.124;8.678;2023-06-01T09:04:48;4.30;;;1.92;;
24715;SDS011;12822;50.124;8.678;2023-06-01T09:07:15;9.02;;;2.65;;
24715;SDS011;12822;50.124;8.678;2023-06-01T09:09:42;9.77;;;2.60;;
24715;SDS011;12822;50.124;8.678;2023-06-01T09:12:18;11.50;;;2.88;;
24715;SDS011;12822;50.124;8.678;2023-06-01T09:14:44;7.35;;;2.10;;
24715;SDS011;12822;50.124;8.678;2023-06-01T09:17:14;9.30;;;2.17;;
24715;SDS011;12822;50.124;8.678;2023-06-01T09:19:43;4.47;;;2.13;;
24715;SDS011;12822;50.124;8.678;2023-06-01T09:22:10;7.20;;;2.30;;
24715;SDS011;12822;50.124;8.678;2023-06-01T09:24:39;5.70;;;2.17;;
24715;SDS011;12822;50.124;8.678;2023-06-01T09:27:08;7.18;;;2.00;;
24715;SDS011;12822;50.124;8.678;2023-06-01T09:29:34;6.55;;;2.28;;
24715;SDS011;12822;50.124;8.678;2023-06-01T09:32:03;7.60;;;2.20;;
24715;SDS011;12822;50.124;8.678;2023-06-01T09:34:30;4.10;;;1.95;;
24715;SDS011;12822;50.124;8.678;2023-06-01T09:36:57;7.78;;;2.00;;
24715;SDS011;12822;50.124;8.678;2023-06-01T09:39:32;12.68;;;2.83;;
24715;SDS011;12822;50.124;8.678;2023-06-01T09:41:59;7.78;;;2.63;;
24715;SDS011;12822;50.124;8.678;2023-06-01T09:44:27;6.50;;;2.72;;
24715;SDS011;12822;50.124;8.678;2023-06-01T09:47:03;6.68;;;2.25;;
24715;SDS011;12822;50.124;8.678;2023-06-01T09:49:33;5.35;;;2.03;;
24715;SDS011;12822;50.124;8.678;2023-06-01T09:54:33;5.05;;;2.10;;
24715;SDS011;12822;50.124;8.678;2023-06-01T09:57:00;9.70;;;2.40;;
24715;SDS011;12822;50.124;8.678;2023-06-01T09:59:27;3.35;;;1.83;;
24715;SDS011;12822;50.124;8.678;2023-06-01T10:01:54;5.68;;;2.00;;
24715;SDS011;12822;50.124;8.678;2023-06-01T10:04:25;5.43;;;2.15;;
24715;SDS011;12822;50.124;8.678;2023-06-01T10:06:52;5.60;;;1.98;;
24715;SDS011;12822;50.124;8.678;2023-06-01T10:09:19;6.97;;;2.10;;
24715;SDS011;12822;50.124;8.678;2023-06-01T10:11:49;7.38;;;1.98;;
24715;SDS011;12822;50.124;8.678;2023-06-01T10:14:18;7.25;;;2.13;;
24715;SDS011;12822;50.124;8.678;2023-06-01T10:16:44;8.80;;;2.60;;
24715;SDS011;12822;50.124;8.678;2023-06-01T10:19:11;3.85;;;1.70;;
24715;SDS011;12822;50.124;8.678;2023-06-01T10:21:37;4.47;;;1.77;;
24715;SDS011;12822;50.124;8.678;2023-06-01T10:24:05;3.88;;;1.60;;
24715;SDS011;12822;50.124;8.678;2023-06-01T10:26:33;5.38;;;1.60;;
24715;SDS011;12822;50.124;8.678;2023-06-01T10:29:01;7.85;;;1.80;;
24715;SDS011;12822;50.124;8.678;2023-06-01T10:31:34;3.05;;;1.52;;
24715;SDS011;12822;50.124;8.678;2023-06-01T10:34:01;4.35;;;1.80;;
24715;SDS011;12822;50.124;8.678;2023-06-01T10:47:05;3.80;;;1.90;;
24715;SDS011;12822;50.124;8.678;2023-06-01T10:54:54;4.85;;;1.80;;
24715;SDS011;12822;50.124;8.678;2023-06-01T10:57:24;3.10;;;1.55;;
24715;SDS011;12822;50.124;8.678;2023-06-01T11:02:46;9.10;;;1.98;;
24715;SDS011;12822;50.124;8.678;2023-06-01T11:07:57;3.92;;;1.60;;
24715;SDS011;12822;50.124;8.678;2023-06-01T11:13:14;4.10;;;1.50;;
24715;SDS011;12822;50.124;8.678;2023-06-01T11:21:25;4.65;;;1.40;;
24715;SDS011;12822;50.124;8.678;2023-06-01T11:23:52;8.88;;;1.92;;
24715;SDS011;12822;50.124;8.678;2023-06-01T11:26:20;3.60;;;1.60;;
24715;SDS011;12822;50.124;8.678;2023-06-01T11:28:47;3.60;;;1.33;;
24715;SDS011;12822;50.124;8.678;2023-06-01T11:31:14;6.53;;;1.67;;
24715;SDS011;12822;50.124;8.678;2023-06-01T11:33:41;4.25;;;1.88;;
24715;SDS011;12822;50.124;8.678;2023-06-01T11:36:07;3.35;;;1.70;;
24715;SDS011;12822;50.124;8.678;2023-06-01T11:38:38;4.55;;;1.90;;
24715;SDS011;12822;50.124;8.678;2023-06-01T11:43:31;5.22;;;1.92;;
24715;SDS011;12822;50.124;8.678;2023-06-01T11:46:08;3.42;;;1.55;;
24715;SDS011;12822;50.124;8.678;2023-06-01T11:48:37;3.03;;;1.60;;
24715;SDS011;12822;50.124;8.678;2023-06-01T11:51:03;6.00;;;1.60;;
24715;SDS011;12822;50.124;8.678;2023-06-01T11:53:30;2.70;;;1.60;;
24715;SDS011;12822;50.124;8.678;2023-06-01T11:55:59;5.60;;;1.88;;
24715;SDS011;12822;50.124;8.678;2023-06-01T11:58:27;3.90;;;1.60;;
24715;SDS011;12822;50.124;8.678;2023-06-01T12:00:54;3.20;;;1.88;;
24715;SDS011;12822;50.124;8.678;2023-06-01T12:03:21;3.25;;;1.90;;
24715;SDS011;12822;50.124;8.678;2023-06-01T12:05:49;4.65;;;1.90;;
24715;SDS011;12822;50.124;8.678;2023-06-01T12:08:16;3.67;;;1.50;;
24715;SDS011;12822;50.124;8.678;2023-06-01T12:10:44;3.88;;;1.55;;
24715;SDS011;12822;50.124;8.678;2023-06-01T12:13:11;3.50;;;1.88;;
24715;SDS011;12822;50.124;8.678;2023-06-01T12:15:38;4.25;;;1.77;;
24715;SDS011;12822;50.124;8.678;2023-06-01T12:18:04;3.28;;;1.70;;
24715;SDS011;12822;50.124;8.678;2023-06-01T12:20:34;3.67;;;1.42;;
24715;SDS011;12822;50.124;8.678;2023-06-01T12:23:01;4.30;;;1.85;;
24715;SDS011;12822;50.124;8.678;2023-06-01T12:25:30;6.22;;;2.10;;
24715;SDS011;12822;50.124;8.678;2023-06-01T12:28:03;5.15;;;1.88;;
24715;SDS011;12822;50.124;8.678;2023-06-01T12:30:30;2.53;;;1.63;;
24715;SDS011;12822;50.124;8.678;2023-06-01T12:32:56;2.90;;;1.45;;
24715;SDS011;12822;50.124;8.678;2023-06-01T12:35:22;5.32;;;1.40;;
24715;SDS011;12822;50.124;8.678;2023-06-01T12:38:07;2.72;;;1.52;;
24715;SDS011;12822;50.124;8.678;2023-06-01T12:40:34;4.45;;;2.03;;
24715;SDS011;12822;50.124;8.678;2023-06-01T12:43:00;5.97;;;2.25;;
24715;SDS011;12822;50.124;8.678;2023-06-01T12:45:45;7.22;;;2.00;;
24715;SDS011;12822;50.124;8.678;2023-06-01T12:48:29;6.45;;;2.00;;
24715;SDS011;12822;50.124;8.678;2023-06-01T12:50:57;5.88;;;2.05;;
24715;SDS011;12822;50.124;8.678;2023-06-01T12:53:23;4.13;;;1.52;;
24715;SDS011;12822;50.124;8.678;2023-06-01T12:55:49;8.60;;;1.77;;
24715;SDS011;12822;50.124;8.678;2023-06-01T12:58:15;3.70;;;1.60;;
24715;SDS011;12822;50.124;8.678;2023-06-01T13:00:41;2.72;;;1.70;;
24715;SDS011;12822;50.124;8.678;2023-06-01T13:03:07;3.38;;;1.60;;
24715;SDS011;12822;50.124;8.678;2023-06-01T13:05:33;7.35;;;2.20;;
24715;SDS011;12822;50.124;8.678;2023-06-01T13:07:59;7.38;;;1.80;;
24715;SDS011;12822;50.124;8.678;2023-06-01T13:10:26;4.85;;;1.70;;
24715;SDS011;12822;50.124;8.678;2023-06-01T13:12:52;4.65;;;1.73;;
24715;SDS011;12822;50.124;8.678;2023-06-01T13:15:18;3.55;;;1.77;;
24715;SDS011;12822;50.124;8.678;2023-06-01T13:17:44;3.10;;;1.60;;
24715;SDS011;12822;50.124;8.678;2023-06-01T13:20:10;4.38;;;1.50;;
24715;SDS011;12822;50.124;8.678;2023-06-01T13:22:37;2.97;;;1.70;;
24715;SDS011;12822;50.124;8.678;2023-06-01T13:25:03;5.63;;;1.92;;
24715;SDS011;12822;50.124;8.678;2023-06-01T13:27:30;3.50;;;2.00;;
24715;SDS011;12822;50.124;8.678;2023-06-01T13:29:56;3.65;;;1.48;;
24715;SDS011;12822;50.124;8.678;2023-06-01T13:32:22;3.60;;;1.85;;
24715;SDS011;12822;50.124;8.678;2023-06-01T13:34:48;7.43;;;1.90;;
24715;SDS011;12822;50.124;8.678;2023-06-01T13:37:16;5.47;;;2.13;;
24715;SDS011;12822;50.124;8.678;2023-06-01T13:39:43;4.50;;;1.98;;
24715;SDS011;12822;50.124;8.678;2023-06-01T13:42:09;5.60;;;2.08;;
24715;SDS011;12822;50.124;8.678;2023-06-01T13:44:39;4.60;;;2.00;;
24715;SDS011;12822;50.124;8.678;2023-06-01T13:47:07;3.78;;;1.83;;
24715;SDS011;12822;50.124;8.678;2023-06-01T13:49:34;3.85;;;1.70;;
24715;SDS011;12822;50.124;8.678;2023-06-01T13:52:00;4.93;;;1.92;;
24715;SDS011;12822;50.124;8.678;2023-06-01T13:54:26;3.05;;;1.90;;
24715;SDS011;12822;50.124;8.678;2023-06-01T13:56:52;5.07;;;2.42;;
24715;SDS011;12822;50.124;8.678;2023-06-01T13:59:18;5.10;;;2.20;;
24715;SDS011;12822;50.124;8.678;2023-06-01T14:01:44;5.95;;;1.98;;
24715;SDS011;12822;50.124;8.678;2023-06-01T14:04:10;4.43;;;1.85;;
24715;SDS011;12822;50.124;8.678;2023-06-01T14:06:36;4.28;;;2.00;;
24715;SDS011;12822;50.124;8.678;2023-06-01T14:09:02;3.13;;;1.92;;
24715;SDS011;12822;50.124;8.678;2023-06-01T14:11:28;4.22;;;2.10;;
24715;SDS011;12822;50.124;8.678;2023-06-01T14:13:54;9.52;;;2.25;;
24715;SDS011;12822;50.124;8.678;2023-06-01T14:16:20;8.73;;;2.05;;
24715;SDS011;12822;50.124;8.678;2023-06-01T14:18:49;2.88;;;1.90;;
24715;SDS011;12822;50.124;8.678;2023-06-01T14:21:15;4.35;;;2.00;;
24715;SDS011;12822;50.124;8.678;2023-06-01T14:23:41;4.22;;;1.90;;
24715;SDS011;12822;50.124;8.678;2023-06-01T14:26:09;5.43;;;2.00;;
24715;SDS011;12822;50.124;8.678;2023-06-01T14:28:35;3.92;;;2.00;;
24715;SDS011;12822;50.124;8.678;2023-06-01T14:31:01;5.07;;;1.70;;
24715;SDS011;12822;50.124;8.678;2023-06-01T14:33:27;4.90;;;1.90;;
24715;SDS011;12822;50.124;8.678;2023-06-01T14:35:53;4.15;;;2.10;;
24715;SDS011;12822;50.124;8.678;2023-06-01T14:38:19;4.93;;;2.20;;
24715;SDS011;12822;50.124;8.678;2023-06-01T14:40:45;7.82;;;2.20;;
24715;SDS011;12822;50.124;8.678;2023-06-01T14:43:11;5.18;;;2.03;;
24715;SDS011;12822;50.124;8.678;2023-06-01T14:45:37;7.45;;;2.28;;
24715;SDS011;12822;50.124;8.678;2023-06-01T14:48:03;9.45;;;2.30;;
24715;SDS011;12822;50.124;8.678;2023-06-01T14:50:29;4.35;;;2.10;;
24715;SDS011;12822;50.124;8.678;2023-06-01T14:52:56;5.03;;;1.90;;
24715;SDS011;12822;50.124;8.678;2023-06-01T14:55:24;3.85;;;1.88;;
24715;SDS011;12822;50.124;8.678;2023-06-01T14:57:53;4.70;;;2.13;;
24715;SDS011;12822;50.124;8.678;2023-06-01T15:00:19;8.00;;;2.25;;
24715;SDS011;12822;50.124;8.678;2023-06-01T15:02:46;5.07;;;2.33;;
24715;SDS011;12822;50.124;8.678;2023-06-01T15:07:59;10.55;;;2.53;;
24715;SDS011;12822;50.124;8.678;2023-06-01T15:10:32;2.85;;;1.83;;
24715;SDS011;12822;50.124;8.678;2023-06-01T15:13:01;8.40;;;2.13;;
24715;SDS011;12822;50.124;8.678;2023-06-01T15:15:28;10.10;;;1.92;;
24715;SDS011;12822;50.124;8.678;2023-06-01T15:17:54;5.55;;;1.90;;
24715;SDS011;12822;50.124;8.678;2023-06-01T15:20:50;7.57;;;2.15;;
24715;SDS011;12822;50.124;8.678;2023-06-01T15:23:34;3.47;;;1.80;;
24715;SDS011;12822;50.124;8.678;2023-06-01T15:26:01;5.75;;;2.25;;
24715;SDS011;12822;50.124;8.678;2023-06-01T15:28:27;6.10;;;2.15;;
24715;SDS011;12822;50.124;8.678;2023-06-01T15:33:47;6.30;;;2.10;;
24715;SDS011;12822;50.124;8.678;2023-06-01T15:36:15;7.65;;;2.10;;
24715;SDS011;12822;50.124;8.678;2023-06-01T15:38:45;4.68;;;2.30;;
24715;SDS011;12822;50.124;8.678;2023-06-01T15:41:11;4.63;;;2.10;;